Time;durP1;ratioP1;P1;durP2;ratioP2;P2;SDS_P1;SDS_P2;PMS_P1;PMS_P2;Temp;Humidity;BMP_temperature;BMP_pressure;BME280_temperature;BME280_humidity;BME280_pressure;Samples;Min_cycle;Max_cycle;Signal;HPM_P1;HPM_P2
2021/01/06 00:01:03;;;;;;;23.65;15.63;;;;;;;8.72;100.00;101301.91;5075740;28;20028;-74
2021/01/06 00:03:49;;;;;;;29.45;18.00;;;;;;;9.07;100.00;101294.88;5076172;28;20021;-74
2021/01/06 00:06:37;;;;;;;29.33;17.65;;;;;;;9.01;100.00;101302.75;5076454;28;20428;-74
2021/01/06 00:09:23;;;;;;;25.83;16.35;;;;;;;8.67;100.00;101301.91;5075496;28;20059;-74
2021/01/06 00:12:09;;;;;;;27.60;16.95;;;;;;;8.51;100.00;101310.63;5074876;28;20105;-73
2021/01/06 00:14:55;;;;;;;26.48;16.48;;;;;;;8.59;100.00;101318.44;5075296;28;20111;-73
2021/01/06 00:17:40;;;;;;;26.63;17.23;;;;;;;8.34;100.00;101319.31;5075592;28;20028;-74
2021/01/06 00:20:28;;;;;;;26.63;17.35;;;;;;;8.62;100.00;101319.34;5075225;28;20052;-73
2021/01/06 00:23:13;;;;;;;26.50;17.05;;;;;;;8.75;100.00;101314.97;5075800;28;20028;-74
2021/01/06 00:26:00;;;;;;;30.00;18.48;;;;;;;8.69;100.00;101325.44;5074845;28;20454;-74
2021/01/06 00:28:46;;;;;;;30.40;17.42;;;;;;;8.51;100.00;101323.69;5075843;28;20032;-74
2021/01/06 00:31:40;;;;;;;25.75;16.90;;;;;;;8.56;100.00;101326.31;5074988;28;20040;-75
2021/01/06 00:34:26;;;;;;;27.63;17.25;;;;;;;8.91;100.00;101330.63;5075531;28;20340;-73
2021/01/06 00:37:15;;;;;;;30.58;18.73;;;;;;;8.69;100.00;101335.88;5074762;28;20024;-74
2021/01/06 00:40:00;;;;;;;26.42;17.77;;;;;;;8.55;100.00;101329.75;5075527;28;20115;-74
2021/01/06 00:42:46;;;;;;;24.40;16.48;;;;;;;8.61;100.00;101329.78;5075399;28;20032;-74
2021/01/06 00:45:33;;;;;;;31.63;19.27;;;;;;;8.43;100.00;101325.41;5074679;28;20024;-74
2021/01/06 00:48:19;;;;;;;29.13;19.02;;;;;;;8.41;100.00;101321.91;5074421;28;20024;-74
2021/01/06 00:51:05;;;;;;;27.48;17.70;;;;;;;8.45;100.00;101333.25;5074509;28;20058;-74
2021/01/06 00:53:50;;;;;;;27.40;17.58;;;;;;;8.30;100.00;101328.00;5074411;28;20097;-74
2021/01/06 00:56:36;;;;;;;30.00;18.20;;;;;;;8.34;100.00;101333.25;5074537;28;20032;-74
2021/01/06 00:59:22;;;;;;;26.58;17.48;;;;;;;8.49;100.00;101332.38;5074813;28;20025;-73
2021/01/06 01:02:08;;;;;;;26.83;16.90;;;;;;;8.20;100.00;101326.22;5074769;28;20482;-75
2021/01/06 01:04:54;;;;;;;24.23;17.02;;;;;;;8.42;100.00;101322.78;5074819;28;20335;-75
2021/01/06 01:07:39;;;;;;;25.70;16.48;;;;;;;8.46;100.00;101325.41;5074613;28;20020;-73
2021/01/06 01:10:28;;;;;;;24.08;16.70;;;;;;;8.54;100.00;101323.69;5074994;28;20032;-74
2021/01/06 01:13:19;;;;;;;27.42;16.83;;;;;;;8.60;100.00;101325.44;5073908;28;20372;-73
2021/01/06 01:16:05;;;;;;;24.08;17.02;;;;;;;8.58;100.00;101329.78;5074789;28;20031;-74
2021/01/06 01:18:51;;;;;;;21.40;15.35;;;;;;;8.69;100.00;101322.81;5074124;28;20020;-74
2021/01/06 01:21:37;;;;;;;22.23;15.25;;;;;;;8.38;100.00;101323.66;5074047;28;20021;-74
2021/01/06 01:24:23;;;;;;;26.02;15.40;;;;;;;8.27;100.00;101315.81;5073753;28;20344;-74
2021/01/06 01:27:09;;;;;;;24.67;15.75;;;;;;;8.12;100.00;101323.59;5073765;28;20048;-74
2021/01/06 01:29:54;;;;;;;27.45;15.73;;;;;;;8.06;100.00;101320.09;5073189;28;20021;-74
2021/01/06 01:32:45;;;;;;;24.55;15.18;;;;;;;8.01;100.00;101320.09;5073602;28;20043;-73
2021/01/06 01:35:32;;;;;;;26.23;16.83;;;;;;;7.80;100.00;101316.56;5073993;28;20036;-74
2021/01/06 01:38:23;;;;;;;25.35;16.02;;;;;;;8.00;100.00;101317.47;5073616;28;20033;-72
2021/01/06 01:41:14;;;;;;;27.67;15.52;;;;;;;8.11;100.00;101327.06;5074452;28;20028;-74
2021/01/06 01:44:00;;;;;;;25.95;17.90;;;;;;;7.80;100.00;101324.38;5073506;28;20028;-75
2021/01/06 01:47:10;;;;;;;27.00;18.23;;;;;;;7.96;100.00;101334.00;5074149;28;20021;-74
2021/01/06 01:49:57;;;;;;;33.65;20.58;;;;;;;8.20;100.00;101326.22;5073448;28;20450;-74
2021/01/06 01:52:48;;;;;;;26.88;19.10;;;;;;;7.90;100.00;101337.47;5073630;28;20107;-74
2021/01/06 01:55:35;;;;;;;25.25;16.25;;;;;;;7.62;100.00;101342.53;5073845;28;20024;-74
2021/01/06 01:58:25;;;;;;;23.75;16.20;;;;;;;7.69;100.00;101341.72;5073925;28;20120;-75
2021/01/06 02:01:10;;;;;;;23.55;16.27;;;;;;;7.68;100.00;101342.59;5073025;28;20064;-74
2021/01/06 02:04:26;;;;;;;24.40;16.70;;;;;;;7.71;100.00;101340.84;5073477;28;20028;-74
2021/01/06 02:07:17;;;;;;;24.45;16.35;;;;;;;7.93;100.00;101340.09;5074332;28;20029;-73
2021/01/06 02:10:09;;;;;;;25.50;16.40;;;;;;;7.79;100.00;101339.16;5073924;28;20351;-75
2021/01/06 02:13:01;;;;;;;24.15;15.65;;;;;;;7.69;100.00;101326.94;5072608;28;20071;-74
2021/01/06 02:16:05;;;;;;;24.52;15.35;;;;;;;7.35;100.00;101330.25;5072815;28;20025;-74
2021/01/06 02:18:51;;;;;;;24.50;16.17;;;;;;;7.40;100.00;101327.69;5073335;28;20036;-74
2021/01/06 02:21:37;;;;;;;27.15;15.93;;;;;;;7.26;100.00;101326.72;5073125;28;20027;-74
2021/01/06 02:24:23;;;;;;;27.38;16.42;;;;;;;7.50;100.00;101326.84;5073172;28;20107;-74
2021/01/06 02:27:09;;;;;;;28.05;16.40;;;;;;;7.09;100.00;101330.97;5073224;28;20089;-74
2021/01/06 02:29:55;;;;;;;26.35;16.98;;;;;;;7.23;100.00;101330.19;5073499;28;20028;-74
2021/01/06 02:32:42;;;;;;;26.05;16.00;;;;;;;7.42;100.00;101326.81;5073652;28;20028;-75
2021/01/06 02:35:28;;;;;;;24.73;16.60;;;;;;;7.10;100.00;101333.59;5073587;28;20029;-73
2021/01/06 02:38:14;;;;;;;26.42;16.95;;;;;;;7.48;100.00;101329.44;5073049;28;20056;-74
2021/01/06 02:41:00;;;;;;;25.13;16.17;;;;;;;7.17;100.00;101326.69;5077079;28;20020;-74
2021/01/06 02:43:48;;;;;;;27.45;17.63;;;;;;;7.23;100.00;101335.41;5077385;28;20438;-74
2021/01/06 02:46:36;;;;;;;22.88;15.63;;;;;;;7.39;100.00;101324.19;5077727;28;20029;-74
2021/01/06 02:49:23;;;;;;;22.58;14.68;;;;;;;7.22;100.00;101330.19;5076913;28;20025;-74
2021/01/06 02:52:22;;;;;;;21.73;14.38;;;;;;;7.24;100.00;101337.13;5077050;28;20031;-73
2021/01/06 02:55:10;;;;;;;21.10;14.10;;;;;;;7.37;100.00;101338.09;5077431;28;20154;-74
2021/01/06 02:58:00;;;;;;;22.10;14.50;;;;;;;7.48;100.00;101339.03;5076783;28;20035;-74
2021/01/06 03:00:46;;;;;;;19.95;14.63;;;;;;;7.29;100.00;101342.38;5077031;28;20044;-72
2021/01/06 03:03:39;;;;;;;19.65;13.77;;;;;;;7.08;100.00;101337.91;5076775;28;20453;-74
2021/01/06 03:06:32;;;;;;;21.27;14.40;;;;;;;7.08;100.00;101339.66;5076671;28;20062;-75
2021/01/06 03:09:39;;;;;;;23.00;15.15;;;;;;;6.87;100.00;101344.72;5076476;28;20029;-74
2021/01/06 03:12:34;;;;;;;24.70;14.63;;;;;;;6.92;100.00;101333.47;5076239;28;20075;-75
2021/01/06 03:15:23;;;;;;;20.02;14.15;;;;;;;6.86;100.00;101337.75;5077140;28;20039;-72
2021/01/06 03:18:09;;;;;;;21.42;15.25;;;;;;;6.62;100.00;101333.22;5076376;28;20040;-74
2021/01/06 03:21:01;;;;;;;24.10;15.75;;;;;;;7.06;100.00;101341.38;5076069;28;20095;-74
2021/01/06 03:23:54;;;;;;;23.02;14.18;;;;;;;7.10;100.00;101349.22;5076595;28;20032;-73
2021/01/06 03:26:41;;;;;;;24.05;15.10;;;;;;;6.73;100.00;101341.13;5077395;28;20059;-73
2021/01/06 03:29:30;;;;;;;24.92;15.95;;;;;;;6.96;100.00;101342.19;5076765;28;20366;-72
2021/01/06 03:32:48;;;;;;;23.30;15.43;;;;;;;6.85;100.00;101349.03;5076641;28;20021;-74
2021/01/06 03:35:40;;;;;;;22.42;15.70;;;;;;;6.74;100.00;101343.75;5077010;28;20025;-73
2021/01/06 03:38:37;;;;;;;26.80;17.35;;;;;;;6.95;100.00;101349.09;5075840;28;20090;-72
2021/01/06 03:41:25;;;;;;;27.55;16.90;;;;;;;6.71;100.00;101353.28;5076361;28;20643;-74
2021/01/06 03:44:13;;;;;;;24.02;16.70;;;;;;;6.47;100.00;101356.53;5076006;28;20020;-74
2021/01/06 03:47:12;;;;;;;23.85;16.45;;;;;;;6.67;100.00;101344.56;5076520;28;20034;-73
2021/01/06 03:50:10;;;;;;;23.23;15.85;;;;;;;6.77;100.00;101343.78;5076297;28;20502;-74
2021/01/06 03:53:31;;;;;;;22.77;14.55;;;;;;;6.56;100.00;101358.34;5075240;28;20111;-73
2021/01/06 03:56:25;;;;;;;20.60;13.80;;;;;;;6.37;100.00;101352.09;5075782;28;20071;-73
2021/01/06 03:59:25;;;;;;;25.05;14.35;;;;;;;6.35;100.00;101352.94;5075812;28;20089;-73
2021/01/06 04:02:20;;;;;;;22.98;14.23;;;;;;;6.26;100.00;101350.28;5075817;28;20036;-73
2021/01/06 04:05:10;;;;;;;23.85;15.07;;;;;;;6.04;100.00;101348.28;5076069;28;20040;-74
2021/01/06 04:07:56;;;;;;;23.88;15.80;;;;;;;6.02;100.00;101355.22;5075681;28;20103;-74
2021/01/06 04:10:51;;;;;;;24.52;16.20;;;;;;;6.12;100.00;101349.22;5076037;28;20039;-74
2021/01/06 04:13:37;;;;;;;30.10;16.52;;;;;;;5.81;100.00;101348.03;5075048;28;20119;-73
2021/01/06 04:16:24;;;;;;;27.63;16.65;;;;;;;6.08;100.00;101348.34;5076016;28;20527;-73
2021/01/06 04:19:10;;;;;;;27.25;16.75;;;;;;;6.17;100.00;101339.75;5075750;28;20029;-73
2021/01/06 04:21:56;;;;;;;26.27;16.95;;;;;;;6.26;100.00;101339.84;5075081;28;20016;-73
2021/01/06 04:24:42;;;;;;;27.30;16.58;;;;;;;6.01;100.00;101348.25;5075269;28;20370;-74
2021/01/06 04:27:28;;;;;;;26.38;16.25;;;;;;;6.01;100.00;101350.84;5075816;28;20020;-74
2021/01/06 04:30:40;;;;;;;26.52;16.70;;;;;;;5.97;100.00;101352.56;5075646;28;20034;-73
2021/01/06 04:33:33;;;;;;;32.38;20.30;;;;;;;6.22;100.00;101359.75;5050535;28;20356;-74
2021/01/06 04:36:27;;;;;;;28.13;18.25;;;;;;;6.31;100.00;101353.78;5075258;28;20059;-72
2021/01/06 04:39:13;;;;;;;31.02;18.20;;;;;;;6.14;100.00;101355.34;5075095;28;20024;-73
2021/01/06 04:42:06;;;;;;;28.02;17.17;;;;;;;6.50;100.00;101342.66;5074669;28;20419;-74
2021/01/06 04:45:05;;;;;;;34.20;20.10;;;;;;;6.36;100.00;101346.88;5075810;28;20362;-73
2021/01/06 04:48:03;;;;;;;29.15;19.25;;;;;;;6.48;100.00;101347.88;5074719;28;20024;-73
2021/01/06 04:50:58;;;;;;;30.55;19.98;;;;;;;6.31;100.00;101353.78;5074514;28;20040;-72
2021/01/06 04:54:22;;;;;;;35.67;22.92;;;;;;;6.05;100.00;101352.63;5074862;28;20165;-73
2021/01/06 04:57:28;;;;;;;34.13;22.27;;;;;;;5.94;100.00;101333.44;5075407;28;20020;-73
2021/01/06 05:00:31;;;;;;;31.45;21.48;;;;;;;6.07;100.00;101343.97;5074466;28;20016;-73
2021/01/06 05:03:31;;;;;;;37.25;23.90;;;;;;;5.98;100.00;101335.22;5073434;28;20425;-73
2021/01/06 05:06:16;;;;;;;37.22;23.00;;;;;;;6.06;100.00;101336.19;5075018;28;20024;-74
2021/01/06 05:09:26;;;;;;;37.92;25.88;;;;;;;6.17;100.00;101335.44;5074206;28;20021;-74
2021/01/06 05:12:22;;;;;;;37.53;23.35;;;;;;;5.77;100.00;101327.13;5073991;28;20454;-73
2021/01/06 05:15:20;;;;;;;42.88;27.58;;;;;;;6.05;100.00;101329.22;5074159;28;20039;-74
2021/01/06 05:18:07;;;;;;;38.85;23.70;;;;;;;5.94;100.00;101328.25;5074233;28;20028;-74
2021/01/06 05:20:54;;;;;;;41.00;24.27;;;;;;;6.14;100.00;101326.72;5074032;28;20036;-72
2021/01/06 05:23:42;;;;;;;38.28;23.88;;;;;;;6.24;100.00;101320.75;5074188;28;20029;-74
2021/01/06 05:26:28;;;;;;;38.10;23.65;;;;;;;6.31;100.00;101323.41;5074628;28;20032;-74
2021/01/06 05:29:24;;;;;;;41.75;24.50;;;;;;;6.34;100.00;101327.78;5074142;28;20099;-73
2021/01/06 05:32:27;;;;;;;51.30;26.95;;;;;;;6.36;100.00;101326.06;5074505;28;20123;-74
2021/01/06 05:35:18;;;;;;;50.15;26.45;;;;;;;6.42;100.00;101324.38;5073156;28;20020;-74
2021/01/06 05:38:04;;;;;;;46.13;28.52;;;;;;;6.46;100.00;101330.47;5074102;28;20021;-74
2021/01/06 05:40:50;;;;;;;52.42;29.90;;;;;;;6.63;100.00;101331.50;5073101;28;20032;-73
2021/01/06 05:43:42;;;;;;;50.17;27.42;;;;;;;6.77;100.00;101327.28;5074546;28;20046;-73
2021/01/06 05:46:31;;;;;;;44.13;25.20;;;;;;;6.74;100.00;101330.72;5073698;28;20038;-73
2021/01/06 05:49:24;;;;;;;39.88;25.25;;;;;;;6.82;100.00;101329.06;5073704;28;20077;-74
2021/01/06 05:52:14;;;;;;;42.35;23.95;;;;;;;6.85;100.00;101318.66;5073485;28;20032;-74
2021/01/06 05:55:06;;;;;;;46.67;24.80;;;;;;;6.86;100.00;101316.91;5073605;28;20032;-73
2021/01/06 05:58:09;;;;;;;45.40;26.13;;;;;;;6.44;100.00;101319.19;5073710;28;20020;-74
2021/01/06 06:01:19;;;;;;;49.95;30.45;;;;;;;6.47;100.00;101308.81;5073410;28;20033;-73
2021/01/06 06:04:17;;;;;;;64.05;35.45;;;;;;;6.45;100.00;101314.00;5073479;28;20028;-73
2021/01/06 06:07:15;;;;;;;61.70;35.45;;;;;;;6.44;100.00;101317.47;5072824;28;20125;-73
2021/01/06 06:10:00;;;;;;;63.47;35.80;;;;;;;6.71;100.00;101322.88;5073537;28;20055;-73
2021/01/06 06:13:13;;;;;;;58.45;34.13;;;;;;;6.98;100.00;101323.09;5073262;28;20048;-74
2021/01/06 06:16:11;;;;;;;57.13;32.45;;;;;;;7.40;100.00;101322.47;5073117;28;20039;-74
2021/01/06 06:19:18;;;;;;;42.47;25.83;;;;;;;7.49;100.00;101327.72;5073380;28;20021;-73
2021/01/06 06:22:24;;;;;;;38.65;24.52;;;;;;;7.38;100.00;101332.88;5073258;28;20040;-73
2021/01/06 06:25:23;;;;;;;40.17;26.13;;;;;;;7.47;100.00;101329.47;5073494;28;20062;-73
2021/01/06 06:28:28;;;;;;;49.97;27.23;;;;;;;7.59;100.00;101339.94;5073034;28;20037;-73
2021/01/06 06:31:34;;;;;;;84.35;33.75;;;;;;;7.55;100.00;101346.03;5073570;28;20484;-75
2021/01/06 06:34:33;;;;;;;68.75;32.38;;;;;;;7.54;100.00;101352.06;5073803;28;20064;-73
2021/01/06 06:37:20;;;;;;;58.30;32.03;;;;;;;7.16;100.00;101353.59;5073596;28;20401;-74
2021/01/06 06:40:09;;;;;;;52.15;28.35;;;;;;;7.10;100.00;101364.84;5073268;28;20025;-74
2021/01/06 06:43:00;;;;;;;44.63;27.60;;;;;;;7.32;100.00;101358.06;5074032;28;20020;-73
2021/01/06 06:46:00;;;;;;;65.95;28.75;;;;;;;7.31;100.00;101370.19;5073115;28;20021;-74
2021/01/06 06:49:17;;;;;;;60.80;31.13;;;;;;;7.05;100.00;101370.88;5073152;28;20534;-73
2021/01/06 06:52:16;;;;;;;55.00;28.73;;;;;;;7.27;100.00;101362.38;5072832;28;20035;-74
2021/01/06 06:55:27;;;;;;;58.92;29.70;;;;;;;7.55;100.00;101361.66;5074246;28;20029;-74
2021/01/06 06:58:28;;;;;;;80.82;31.02;;;;;;;7.49;100.00;101359.00;5073016;28;20048;-73
2021/01/06 07:01:20;;;;;;;50.22;30.23;;;;;;;7.26;100.00;101365.81;5073575;28;20111;-76
2021/01/06 07:04:25;;;;;;;48.42;29.10;;;;;;;7.10;100.00;101371.78;5074045;28;20029;-75
2021/01/06 07:07:33;;;;;;;43.22;28.25;;;;;;;7.21;100.00;101378.84;5072969;28;20056;-73
2021/01/06 07:10:23;;;;;;;48.35;31.00;;;;;;;7.18;100.00;101372.72;5073127;28;20035;-74
2021/01/06 07:13:17;;;;;;;52.65;31.70;;;;;;;7.28;100.00;101370.16;5072758;28;20089;-73
2021/01/06 07:16:15;;;;;;;55.88;32.85;;;;;;;7.21;100.00;101363.19;5072639;28;20020;-74
2021/01/06 07:19:16;;;;;;;66.35;34.75;;;;;;;7.14;100.00;101370.94;5073822;28;20029;-73
2021/01/06 07:22:29;;;;;;;60.45;32.58;;;;;;;7.41;100.00;101374.63;5072620;28;20024;-74
2021/01/06 07:25:18;;;;;;;58.05;33.08;;;;;;;7.43;100.00;101379.84;5072770;28;20025;-74
2021/01/06 07:28:12;;;;;;;54.10;33.13;;;;;;;7.78;100.00;101368.72;5075621;28;20062;-72
2021/01/06 07:31:11;;;;;;;67.63;39.53;;;;;;;7.66;100.00;101381.69;5076376;28;20036;-73
2021/01/06 07:34:05;;;;;;;54.55;36.28;;;;;;;7.58;100.00;101386.00;5076877;28;20043;-73
2021/01/06 07:36:53;;;;;;;53.05;34.15;;;;;;;7.50;100.00;101379.00;5076142;28;20032;-74
2021/01/06 07:39:38;;;;;;;59.35;37.33;;;;;;;7.39;100.00;101373.72;5075871;28;20028;-74
2021/01/06 07:42:34;;;;;;;54.88;32.70;;;;;;;7.65;100.00;101371.25;5075779;28;20370;-74
2021/01/06 07:45:26;;;;;;;60.63;32.28;;;;;;;7.70;100.00;101364.31;5075805;28;20111;-75
2021/01/06 07:48:14;;;;;;;54.53;31.67;;;;;;;7.70;100.00;101369.53;5075997;28;20024;-74
2021/01/06 07:51:06;;;;;;;49.13;30.10;;;;;;;8.08;100.00;101367.97;5075819;28;20043;-75
2021/01/06 07:54:02;;;;;;;49.28;30.08;;;;;;;8.68;100.00;101381.16;5076250;28;20111;-74
2021/01/06 07:57:20;;;;;;;55.45;32.38;;;;;;;8.51;100.00;101383.75;5076191;28;20040;-75
2021/01/06 08:00:09;;;;;;;50.45;31.20;;;;;;;8.21;100.00;101383.69;5076219;28;20027;-74
2021/01/06 08:03:10;;;;;;;54.08;31.33;;;;;;;7.92;100.00;101392.25;5074895;28;20028;-75
2021/01/06 08:06:01;;;;;;;52.38;29.80;;;;;;;8.15;100.00;101393.19;5075536;28;20117;-74
2021/01/06 08:08:50;;;;;;;46.58;28.25;;;;;;;8.38;100.00;101395.03;5075122;28;20573;-75
2021/01/06 08:12:11;;;;;;;47.17;29.95;;;;;;;8.49;100.00;101389.84;5075715;28;20132;-74
2021/01/06 08:15:19;;;;;;;44.72;27.40;;;;;;;8.82;100.00;101393.34;5075926;28;20059;-74
2021/01/06 08:18:07;;;;;;;48.92;31.00;;;;;;;8.62;100.00;101389.84;5075617;28;20028;-74
2021/01/06 08:21:04;;;;;;;45.00;28.50;;;;;;;8.43;100.00;101392.41;5076157;28;20090;-74
2021/01/06 08:24:09;;;;;;;45.47;29.73;;;;;;;8.33;100.00;101401.97;5075528;28;20044;-73
2021/01/06 08:26:58;;;;;;;42.15;25.90;;;;;;;8.57;100.00;101398.56;5075206;28;20021;-75
2021/01/06 08:29:44;;;;;;;48.55;28.33;;;;;;;8.49;100.00;101406.34;5075690;28;20343;-76
2021/01/06 08:32:30;;;;;;;42.00;26.90;;;;;;;8.86;100.00;101402.94;5077754;28;20442;-75
2021/01/06 08:35:20;;;;;;;45.30;27.92;;;;;;;9.03;100.00;101402.91;5075445;28;20024;-75
2021/01/06 08:38:44;;;;;;;46.92;27.70;;;;;;;9.10;100.00;101400.31;5074724;28;20224;-75
2021/01/06 08:41:30;;;;;;;40.50;26.10;;;;;;;9.31;100.00;101409.88;5045871;28;20509;-74
2021/01/06 08:44:40;;;;;;;36.90;23.50;;;;;;;8.55;100.00;101411.59;5075375;28;20115;-75
2021/01/06 08:47:48;;;;;;;39.17;25.08;;;;;;;8.99;100.00;101406.41;5077368;28;20440;-74
2021/01/06 08:51:07;;;;;;;38.70;23.95;;;;;;;9.45;100.00;101403.72;5075061;28;20032;-74
2021/01/06 08:53:53;;;;;;;49.83;26.25;;;;;;;9.00;100.00;101403.78;5074649;28;20024;-75
2021/01/06 08:56:39;;;;;;;39.95;24.65;;;;;;;9.28;100.00;101400.28;5074673;28;20340;-75
2021/01/06 08:59:27;;;;;;;43.38;25.77;;;;;;;9.22;100.00;101388.97;5075150;28;20059;-75
2021/01/06 09:02:33;;;;;;;50.65;27.73;;;;;;;9.12;100.00;101384.59;5074494;28;20039;-75
2021/01/06 09:05:38;;;;;;;48.42;31.77;;;;;;;9.33;100.00;101382.84;5074765;28;20043;-74
2021/01/06 09:08:36;;;;;;;59.53;35.13;;;;;;;9.68;100.00;101370.53;5072535;28;20454;-74
2021/01/06 09:11:43;;;;;;;51.17;32.47;;;;;;;9.95;100.00;101373.06;5074157;28;20086;-74
2021/01/06 09:14:41;;;;;;;49.35;28.42;;;;;;;10.31;100.00;101366.78;5074126;28;20029;-75
2021/01/06 09:17:36;;;;;;;46.97;27.55;;;;;;;10.72;100.00;101379.63;5074835;28;20098;-74
2021/01/06 09:20:30;;;;;;;44.70;27.23;;;;;;;10.64;100.00;101370.94;5074046;28;20415;-74
2021/01/06 09:23:18;;;;;;;48.30;31.65;;;;;;;10.93;100.00;101380.28;5074281;28;20020;-74
2021/01/06 09:26:05;;;;;;;49.83;29.13;;;;;;;10.23;100.00;101368.56;5073740;28;20454;-75
2021/01/06 09:29:12;;;;;;;45.00;30.38;;;;;;;10.33;100.00;101362.38;5074300;28;20692;-73
2021/01/06 09:32:01;;;;;;;49.08;29.20;;;;;;;10.43;100.00;101357.97;5072530;28;20028;-76
2021/01/06 09:34:58;;;;;;;42.92;28.13;;;;;;;10.46;100.00;101356.22;5073639;28;20059;-75
2021/01/06 09:38:25;;;;;;;46.15;28.63;;;;;;;10.83;100.00;101344.56;5074761;28;20032;-74
2021/01/06 09:41:18;;;;;;;48.17;28.05;;;;;;;11.13;100.00;101339.03;5073588;28;20043;-74
2021/01/06 09:44:07;;;;;;;51.65;30.70;;;;;;;11.46;100.00;101329.94;5073677;28;20028;-74
2021/01/06 09:46:59;;;;;;;44.83;29.05;;;;;;;11.36;100.00;101329.16;5074056;28;20055;-73
2021/01/06 09:49:50;;;;;;;47.58;29.95;;;;;;;10.94;100.00;101334.84;5073330;28;20573;-74
2021/01/06 09:52:38;;;;;;;47.08;28.77;;;;;;;11.03;100.00;101321.66;5073472;28;20474;-73
2021/01/06 09:55:26;;;;;;;44.53;28.15;;;;;;;11.37;100.00;101307.28;5074131;28;20028;-74
2021/01/06 09:58:18;;;;;;;47.00;29.08;;;;;;;11.43;100.00;101296.75;5073992;28;20116;-73
2021/01/06 10:01:16;;;;;;;48.55;27.75;;;;;;;11.01;100.00;101312.91;5073892;28;20020;-74
2021/01/06 10:04:14;;;;;;;43.08;26.70;;;;;;;11.03;100.00;101300.69;5073555;28;20051;-73
2021/01/06 10:07:11;;;;;;;49.42;27.30;;;;;;;10.58;100.00;101297.59;5073523;28;20056;-74
2021/01/06 10:10:13;;;;;;;50.22;28.08;;;;;;;10.98;100.00;101292.00;5073433;28;20039;-73
2021/01/06 10:13:22;;;;;;;48.08;28.20;;;;;;;11.44;100.00;101280.09;5073075;28;20391;-73
2021/01/06 10:16:13;;;;;;;40.45;27.05;;;;;;;11.30;100.00;101284.66;5073366;28;20036;-73
2021/01/06 10:19:18;;;;;;;39.42;26.38;;;;;;;11.22;100.00;101283.88;5073603;28;20131;-73
2021/01/06 10:22:25;;;;;;;49.00;25.75;;;;;;;11.35;100.00;101285.47;5073180;28;20477;-74
2021/01/06 10:25:54;;;;;;;41.10;26.15;;;;;;;12.01;100.00;101276.72;5073092;28;20209;-73
2021/01/06 10:28:47;;;;;;;39.38;26.85;;;;;;;12.41;100.00;101269.97;5073534;28;20374;-73
2021/01/06 10:31:57;;;;;;;51.20;28.42;;;;;;;12.54;100.00;101252.25;5073273;28;20500;-73
2021/01/06 10:34:44;;;;;;;44.33;27.75;;;;;;;12.70;100.00;101254.59;5073269;28;20024;-74
2021/01/06 10:37:30;;;;;;;44.20;29.73;;;;;;;12.54;100.00;101260.16;5073836;28;20523;-74
2021/01/06 10:40:24;;;;;;;48.20;28.70;;;;;;;12.25;100.00;101263.22;5072953;28;20465;-73
2021/01/06 10:43:33;;;;;;;45.17;28.83;;;;;;;12.75;100.00;101254.53;5073275;28;20024;-73
2021/01/06 10:46:45;;;;;;;40.38;26.42;;;;;;;12.57;100.00;101250.44;5073469;28;20032;-73
2021/01/06 10:49:30;;;;;;;39.35;25.58;;;;;;;12.91;100.00;101243.66;5073122;28;20024;-73
2021/01/06 10:52:21;;;;;;;35.13;23.75;;;;;;;13.39;100.00;101248.00;5072914;28;20024;-73
2021/01/06 10:55:06;;;;;;;32.13;21.83;;;;;;;13.24;100.00;101245.72;5072954;28;20052;-75
2021/01/06 10:58:29;;;;;;;34.83;21.65;;;;;;;13.75;100.00;101239.34;5072806;28;20021;-74
2021/01/06 11:01:24;;;;;;;34.17;22.02;;;;;;;13.66;100.00;101242.19;5073083;28;20020;-73
2021/01/06 11:04:26;;;;;;;36.17;22.17;;;;;;;13.89;100.00;101244.28;5076909;28;20506;-74
2021/01/06 11:07:39;;;;;;;32.78;21.42;;;;;;;14.24;100.00;101252.28;5077026;28;20449;-75
2021/01/06 11:10:44;;;;;;;31.48;21.00;;;;;;;14.03;100.00;101250.13;5076884;28;20161;-75
2021/01/06 11:13:54;;;;;;;32.15;22.38;;;;;;;14.03;100.00;101250.97;5077286;28;20048;-75
2021/01/06 11:17:18;;;;;;;36.88;23.15;;;;;;;14.14;100.00;101254.25;5078887;28;20035;-73
2021/01/06 11:20:34;;;;;;;35.20;21.13;;;;;;;14.76;100.00;101245.66;5075755;28;20056;-73
2021/01/06 11:23:29;;;;;;;33.20;21.15;;;;;;;14.28;100.00;101260.06;5076107;28;20028;-74
2021/01/06 11:26:23;;;;;;;30.33;20.58;;;;;;;14.55;100.00;101253.28;5076160;28;20039;-74
2021/01/06 11:29:45;;;;;;;33.55;19.85;;;;;;;15.07;100.00;101244.88;5076819;28;20051;-73
2021/01/06 11:32:35;;;;;;;32.60;20.27;;;;;;;15.32;100.00;101235.34;5076028;28;20446;-74
2021/01/06 11:35:29;;;;;;;31.60;19.45;;;;;;;16.04;100.00;101233.19;5075649;28;20442;-75
2021/01/06 11:38:38;;;;;;;30.80;18.92;;;;;;;15.63;100.00;101226.50;5075818;28;20025;-74
2021/01/06 11:41:27;;;;;;;36.95;20.63;;;;;;;15.53;100.00;101234.75;5075840;28;20066;-74
2021/01/06 11:44:46;;;;;;;28.70;18.83;;;;;;;16.23;100.00;101229.03;5075734;28;20039;-75
2021/01/06 11:47:48;;;;;;;29.55;18.42;;;;;;;15.91;100.00;101229.19;5065124;28;20029;-75
2021/01/06 11:50:43;;;;;;;35.67;18.63;;;;;;;16.27;100.00;101231.53;5075990;28;20028;-74
2021/01/06 11:53:32;;;;;;;31.20;18.48;;;;;;;16.00;100.00;101229.78;5076467;28;20040;-75
2021/01/06 11:56:24;;;;;;;30.40;18.13;;;;;;;16.03;100.00;101226.16;5076197;28;20025;-75
2021/01/06 11:59:30;;;;;;;27.30;17.50;;;;;;;16.12;100.00;101210.84;5075820;28;20032;-75
2021/01/06 12:02:27;;;;;;;29.35;16.83;;;;;;;16.06;100.00;101213.72;5075646;28;20141;-75
2021/01/06 12:05:31;;;;;;;24.20;16.98;;;;;;;16.07;100.00;101219.88;5075654;28;20528;-75
2021/01/06 12:08:20;;;;;;;27.25;19.08;;;;;;;16.60;100.00;101219.84;5075944;28;20457;-76
2021/01/06 12:11:34;;;;;;;23.10;15.70;;;;;;;16.90;100.00;101234.69;5075595;28;20115;-75
2021/01/06 12:14:23;;;;;;;25.38;14.38;;;;;;;16.05;99.25;101226.97;5053493;28;20036;-74
2021/01/06 12:17:24;;;;;;;20.33;12.80;;;;;;;15.81;100.00;101211.88;5075387;28;20033;-74
2021/01/06 12:20:24;;;;;;;25.83;14.43;;;;;;;16.04;100.00;101204.94;5075014;28;20037;-75
2021/01/06 12:23:16;;;;;;;20.25;13.38;;;;;;;16.56;100.00;101212.94;5075913;28;20454;-75
2021/01/06 12:26:02;;;;;;;19.85;13.45;;;;;;;16.50;100.00;101213.16;5075485;28;20032;-76
2021/01/06 12:28:53;;;;;;;25.00;13.93;;;;;;;16.42;100.00;101216.97;5075418;28;20035;-75
2021/01/06 12:31:59;;;;;;;23.58;13.52;;;;;;;16.15;100.00;101213.41;5075755;28;20036;-75
2021/01/06 12:34:45;;;;;;;28.42;14.13;;;;;;;16.48;100.00;101214.97;5075688;28;20460;-75
2021/01/06 12:37:33;;;;;;;29.90;16.90;;;;;;;16.54;100.00;101222.72;5075095;28;20020;-75
2021/01/06 12:40:22;;;;;;;17.92;12.10;;;;;;;15.36;100.00;101226.47;5074939;28;20035;-75
2021/01/06 12:43:26;;;;;;;15.77;11.88;;;;;;;16.17;100.00;101234.50;5074980;28;20067;-75
2021/01/06 12:46:45;;;;;;;19.92;12.00;;;;;;;15.28;100.00;101237.22;5074819;28;20090;-75
2021/01/06 12:49:58;;;;;;;16.80;11.80;;;;;;;15.88;100.00;101243.38;5059425;28;20024;-75
2021/01/06 12:52:48;;;;;;;16.65;11.57;;;;;;;15.67;100.00;101238.72;5075208;28;20024;-74
2021/01/06 12:55:51;;;;;;;20.40;12.32;;;;;;;15.66;100.00;101239.63;5075408;28;20036;-74
2021/01/06 12:58:43;;;;;;;18.40;12.88;;;;;;;15.59;100.00;101246.00;5075005;28;20454;-74
2021/01/06 13:01:37;;;;;;;17.73;12.57;;;;;;;15.09;100.00;101240.41;5074724;28;20033;-74
2021/01/06 13:04:30;;;;;;;20.58;13.25;;;;;;;14.91;100.00;101238.28;5074675;28;20028;-75
2021/01/06 13:07:26;;;;;;;18.60;11.90;;;;;;;15.02;100.00;101230.94;5074709;28;20373;-74
2021/01/06 13:10:15;;;;;;;17.15;12.15;;;;;;;14.30;100.00;101224.00;5074501;28;20034;-75
2021/01/06 13:13:37;;;;;;;21.63;12.50;;;;;;;14.41;100.00;101221.13;5074057;28;20041;-73